createdAt,value
2018-02-10T00:02:03.729Z,68.70
2018-02-10T00:04:32.111Z,69.50
2018-02-10T00:06:59.721Z,68.80
2018-02-10T00:09:27.379Z,69.00
2018-02-10T00:11:55.091Z,69.10
2018-02-10T00:14:22.703Z,69.00
2018-02-10T00:16:51.108Z,69.40
2018-02-10T00:19:18.713Z,69.40
2018-02-10T00:21:46.580Z,69.40
2018-02-10T00:24:14.202Z,69.10
2018-02-10T00:26:41.838Z,69.10
2018-02-10T00:29:10.280Z,69.10
2018-02-10T00:31:37.889Z,69.10
2018-02-10T00:34:06.311Z,69.50
2018-02-10T00:36:33.936Z,69.50
2018-02-10T00:39:02.294Z,69.70
2018-02-10T00:41:29.912Z,69.60
2018-02-10T00:43:57.508Z,69.70
2018-02-10T00:46:25.394Z,69.90
2018-02-10T00:48:53.013Z,70.00
2018-02-10T00:51:20.640Z,70.10
2018-02-10T00:53:48.284Z,70.10
2018-02-10T00:56:15.878Z,70.20
2018-02-10T00:58:44.322Z,70.20
2018-02-10T01:01:11.987Z,70.20
2018-02-10T01:03:39.622Z,70.20
2018-02-10T01:06:07.989Z,70.10
2018-02-10T01:08:36.356Z,70.10
2018-02-10T01:11:04.756Z,70.40
2018-02-10T01:13:33.132Z,70.50
2018-02-10T01:16:01.543Z,70.90
2018-02-10T01:18:29.905Z,70.80
2018-02-10T01:20:57.819Z,70.80
2018-02-10T01:23:25.417Z,70.90
2018-02-10T01:25:53.027Z,71.10
2018-02-10T01:28:21.421Z,71.20
2018-02-10T01:30:49.027Z,71.20
2018-02-10T01:33:16.675Z,71.30
2018-02-10T01:35:44.286Z,71.30
2018-02-10T01:38:13.052Z,71.40
2018-02-10T01:40:40.661Z,71.40
2018-02-10T01:43:09.039Z,71.50
2018-02-10T01:45:37.438Z,71.30
2018-02-10T01:48:05.043Z,71.30
2018-02-10T01:50:32.679Z,71.20
2018-02-10T01:53:00.274Z,71.30
2018-02-10T01:55:27.931Z,71.20
2018-02-10T01:57:55.566Z,71.40
2018-02-10T02:00:23.159Z,71.40
2018-02-10T02:02:50.781Z,71.10
2018-02-10T02:05:19.166Z,71.30
2018-02-10T02:07:47.530Z,71.40
2018-02-10T02:10:16.680Z,71.60
2018-02-10T02:12:44.278Z,71.60
2018-02-10T02:15:11.902Z,71.80
2018-02-10T02:17:39.530Z,71.80
2018-02-10T02:20:07.196Z,71.80
2018-02-10T02:22:34.778Z,71.90
2018-02-10T02:25:03.135Z,72.20
2018-02-10T02:27:30.769Z,72.20
2018-02-10T02:29:58.460Z,72.10
2018-02-10T02:32:26.072Z,72.10
2018-02-10T02:34:53.672Z,72.20
2018-02-10T02:37:21.645Z,72.00
2018-02-10T02:39:49.285Z,71.90
2018-02-10T02:42:16.872Z,71.60
2018-02-10T02:44:44.494Z,71.60
2018-02-10T02:47:12.865Z,71.80
2018-02-10T02:49:40.595Z,71.70
2018-02-10T02:52:08.191Z,71.90
2018-02-10T02:54:36.683Z,72.00
2018-02-10T02:57:04.291Z,72.00
2018-02-10T02:59:31.905Z,71.90
2018-02-10T03:02:01.023Z,71.70
2018-02-10T03:04:29.381Z,71.70
2018-02-10T03:06:57.017Z,71.70
2018-02-10T03:09:24.857Z,71.90
2018-02-10T03:11:53.271Z,72.00
2018-02-10T03:14:21.024Z,71.90
2018-02-10T03:16:48.634Z,72.00
2018-02-10T03:19:16.267Z,71.90
2018-02-10T03:21:43.886Z,71.90
2018-02-10T03:24:11.510Z,71.70
2018-02-10T03:26:39.128Z,71.90
2018-02-10T03:29:07.498Z,71.40
2018-02-10T03:31:35.885Z,72.00
2018-02-10T03:34:03.688Z,71.30
2018-02-10T03:36:31.310Z,71.20
2018-02-10T03:38:58.916Z,71.20
2018-02-10T03:41:26.552Z,71.20
2018-02-10T03:43:54.152Z,71.60
2018-02-10T03:46:21.747Z,71.60
2018-02-10T03:48:49.372Z,71.70
2018-02-10T03:51:16.962Z,71.60
2018-02-10T03:53:44.708Z,71.50
2018-02-10T03:56:12.313Z,71.50
2018-02-10T03:58:39.956Z,71.60
2018-02-10T04:01:07.586Z,71.30
2018-02-10T04:03:35.960Z,71.70
2018-02-10T04:06:04.354Z,71.90
2018-02-10T04:08:32.752Z,71.90
2018-02-10T04:11:01.125Z,71.80
2018-02-10T04:13:29.549Z,72.00
2018-02-10T04:15:57.151Z,72.00
2018-02-10T04:18:25.549Z,72.10
2018-02-10T04:20:53.916Z,72.20
2018-02-10T04:23:22.411Z,72.10
2018-02-10T04:25:50.769Z,72.10
2018-02-10T04:28:18.397Z,72.10
2018-02-10T04:30:46.005Z,72.00
2018-02-10T04:33:13.611Z,71.90
2018-02-10T04:35:41.991Z,72.00
2018-02-10T04:38:10.357Z,71.90
2018-02-10T04:40:38.820Z,72.00
2018-02-10T04:43:06.431Z,72.00
2018-02-10T04:45:34.815Z,71.90
2018-02-10T04:48:03.199Z,71.90
2018-02-10T04:50:31.569Z,72.00
2018-02-10T04:53:00.000Z,72.00
2018-02-10T04:55:27.637Z,72.00
2018-02-10T04:57:55.282Z,71.80
2018-02-10T05:00:22.978Z,71.90
2018-02-10T05:02:50.611Z,72.00
2018-02-10T05:05:18.229Z,72.00
2018-02-10T05:07:45.837Z,71.70
2018-02-10T05:10:13.542Z,71.20
2018-02-10T05:12:41.160Z,71.00
2018-02-10T05:15:08.859Z,71.00
2018-02-10T05:17:37.228Z,70.70
2018-02-10T05:20:04.880Z,70.50
2018-02-10T05:22:32.530Z,71.30
2018-02-10T05:25:00.130Z,70.60
2018-02-10T05:27:28.592Z,70.00
2018-02-10T05:29:56.203Z,70.30
2018-02-10T05:32:23.832Z,71.00
2018-02-10T05:34:52.948Z,71.70
2018-02-10T05:37:21.325Z,72.20
2018-02-10T05:39:48.954Z,71.50
2018-02-10T05:42:16.566Z,71.60
2018-02-10T05:44:44.946Z,71.70
2018-02-10T05:47:13.308Z,71.60
2018-02-10T05:49:40.919Z,71.50
2018-02-10T05:52:08.578Z,71.60
2018-02-10T05:54:36.938Z,71.70
2018-02-10T05:57:04.633Z,71.70
2018-02-10T05:59:33.078Z,71.70
2018-02-10T06:02:00.706Z,71.60
2018-02-10T06:04:28.324Z,71.50
2018-02-10T06:06:55.926Z,71.50
2018-02-10T06:09:23.578Z,71.50
2018-02-10T06:11:51.959Z,71.70
2018-02-10T06:14:20.394Z,71.60
2018-02-10T06:16:48.006Z,71.60
2018-02-10T06:19:16.401Z,71.50
2018-02-10T06:21:44.022Z,71.50
2018-02-10T06:24:11.678Z,71.10
2018-02-10T06:26:39.326Z,70.80
2018-02-10T06:29:06.941Z,71.10
2018-02-10T06:31:35.697Z,71.50
2018-02-10T06:34:03.295Z,71.30
2018-02-10T06:36:30.902Z,71.10
2018-02-10T06:38:58.561Z,71.10
2018-02-10T06:41:26.159Z,70.70
2018-02-10T06:43:53.781Z,70.10
2018-02-10T06:46:22.184Z,69.00
2018-02-10T06:48:49.829Z,68.90
2018-02-10T06:51:17.457Z,68.60
2018-02-10T06:53:45.067Z,68.80
2018-02-10T06:56:12.857Z,68.90
2018-02-10T06:58:40.463Z,68.60
2018-02-10T07:01:08.858Z,69.40
2018-02-10T07:03:36.517Z,69.30
2018-02-10T07:06:05.631Z,69.50
2018-02-10T07:08:34.029Z,69.90
2018-02-10T07:11:02.415Z,69.90
2018-02-10T07:13:30.817Z,70.10
2018-02-10T07:15:58.438Z,70.10
2018-02-10T07:18:26.276Z,69.40
2018-02-10T07:20:53.872Z,68.80
2018-02-10T07:23:21.534Z,68.50
2018-02-10T07:25:49.192Z,68.40
2018-02-10T07:28:16.814Z,68.40
2018-02-10T07:30:44.528Z,68.40
2018-02-10T07:33:12.132Z,68.30
2018-02-10T07:35:40.530Z,67.80
2018-02-10T07:38:08.262Z,67.80
2018-02-10T07:40:36.200Z,67.60
2018-02-10T07:43:03.794Z,67.30
2018-02-10T07:45:31.388Z,67.10
2018-02-10T07:47:59.030Z,67.30
2018-02-10T07:50:26.634Z,67.30
2018-02-10T07:52:54.355Z,67.40
2018-02-10T07:55:21.946Z,67.40
2018-02-10T07:57:50.322Z,67.70
2018-02-10T08:00:18.716Z,67.10
2018-02-10T08:02:47.073Z,67.00
2018-02-10T08:05:14.694Z,66.90
2018-02-10T08:07:42.292Z,67.30
2018-02-10T08:10:09.912Z,66.80
2018-02-10T08:12:37.520Z,66.70
2018-02-10T08:15:05.113Z,66.50
2018-02-10T08:17:33.554Z,65.90
2018-02-10T08:20:01.180Z,65.80
2018-02-10T08:22:28.813Z,65.90
2018-02-10T08:24:57.334Z,65.60
2018-02-10T08:27:25.127Z,65.60
2018-02-10T08:29:52.799Z,65.10
2018-02-10T08:32:20.420Z,65.20
2018-02-10T08:34:48.935Z,65.10
2018-02-10T08:37:16.549Z,65.10
2018-02-10T08:39:44.912Z,65.10
2018-02-10T08:42:12.570Z,65.20
2018-02-10T08:44:40.165Z,65.20
2018-02-10T08:47:07.811Z,65.10
2018-02-10T08:49:35.451Z,65.10
2018-02-10T08:52:03.089Z,64.70
2018-02-10T08:54:31.481Z,64.30
2018-02-10T08:56:59.882Z,64.30
2018-02-10T08:59:27.651Z,64.30
2018-02-10T09:01:55.256Z,63.70
2018-02-10T09:04:22.874Z,63.90
2018-02-10T09:06:50.470Z,64.40
2018-02-10T09:09:18.068Z,70.20
2018-02-10T09:11:46.492Z,66.20
2018-02-10T09:14:14.097Z,66.20
2018-02-10T09:16:41.725Z,63.60
2018-02-10T09:19:09.325Z,62.80
2018-02-10T09:21:36.910Z,63.50
2018-02-10T09:24:06.123Z,64.50
2018-02-10T09:26:34.492Z,65.50
2018-02-10T09:29:02.127Z,65.10
2018-02-10T09:31:29.798Z,63.50
2018-02-10T09:33:57.496Z,68.00
2018-02-10T09:36:25.873Z,63.90
2018-02-10T09:38:53.492Z,63.90
2018-02-10T09:41:21.116Z,64.10
2018-02-10T09:43:48.732Z,62.20
2018-02-10T09:46:16.361Z,60.90
2018-02-10T09:48:44.873Z,62.10
2018-02-10T09:51:12.589Z,62.20
2018-02-10T09:53:42.285Z,61.40
2018-02-10T09:56:09.885Z,61.40
2018-02-10T09:58:37.507Z,60.30
2018-02-10T10:01:05.109Z,60.20
2018-02-10T10:03:33.501Z,59.90
2018-02-10T10:06:01.097Z,60.00
2018-02-10T10:08:30.835Z,60.70
2018-02-10T10:10:58.456Z,61.30
2018-02-10T10:13:26.833Z,60.60
2018-02-10T10:15:54.564Z,60.70
2018-02-10T10:18:22.175Z,60.20
2018-02-10T10:20:50.686Z,60.50
2018-02-10T10:23:18.306Z,60.50
2018-02-10T10:25:45.918Z,60.80
2018-02-10T10:28:13.658Z,60.80
2018-02-10T10:30:42.059Z,60.90
2018-02-10T10:33:10.468Z,60.80
2018-02-10T10:35:38.162Z,60.80
2018-02-10T10:38:05.762Z,61.00
2018-02-10T10:40:34.159Z,60.60
2018-02-10T10:43:01.804Z,60.60
2018-02-10T10:45:29.430Z,60.50
2018-02-10T10:47:57.025Z,60.80
2018-02-10T10:50:24.687Z,60.50
2018-02-10T10:52:52.308Z,61.00
2018-02-10T10:55:19.964Z,60.40
2018-02-10T10:57:47.720Z,60.00
2018-02-10T11:00:19.054Z,58.50
2018-02-10T11:02:47.464Z,58.30
2018-02-10T11:05:15.092Z,58.30
2018-02-10T11:07:42.716Z,57.60
2018-02-10T11:10:10.345Z,57.90
2018-02-10T11:12:38.713Z,57.70
2018-02-10T11:15:06.306Z,57.70
2018-02-10T11:17:33.923Z,58.30
2018-02-10T11:20:01.556Z,58.40
2018-02-10T11:22:29.334Z,58.40
2018-02-10T11:24:56.932Z,57.70
2018-02-10T11:27:24.550Z,57.40
2018-02-10T11:29:52.193Z,57.20
2018-02-10T11:32:20.563Z,57.90
2018-02-10T11:34:48.197Z,57.90
2018-02-10T11:37:15.797Z,58.10
2018-02-10T11:39:43.504Z,58.20
2018-02-10T11:42:11.148Z,58.40
2018-02-10T11:44:39.535Z,58.70
2018-02-10T11:47:07.166Z,58.70
2018-02-10T11:49:36.269Z,58.90
2018-02-10T11:52:05.405Z,58.80
2018-02-10T11:54:33.193Z,58.70
2018-02-10T11:57:00.823Z,59.10
2018-02-10T11:59:29.236Z,58.40
2018-02-10T12:01:56.833Z,58.40
2018-02-10T12:04:24.475Z,58.30
2018-02-10T12:06:52.081Z,58.60
2018-02-10T12:09:19.711Z,58.60
2018-02-10T12:11:47.313Z,58.50
2018-02-10T12:14:15.854Z,58.20
2018-02-10T12:16:43.500Z,58.30
2018-02-10T12:19:11.864Z,58.10
2018-02-10T12:21:40.293Z,59.00
2018-02-10T12:24:07.882Z,58.50
2018-02-10T12:26:35.605Z,58.50
2018-02-10T12:29:03.215Z,60.20
2018-02-10T12:31:30.846Z,58.30
2018-02-10T12:33:58.505Z,57.70
2018-02-10T12:36:26.123Z,57.20
2018-02-10T12:38:53.811Z,58.00
2018-02-10T12:41:21.422Z,57.80
2018-02-10T12:43:49.406Z,58.00
2018-02-10T12:46:17.024Z,58.80
2018-02-10T12:48:51.002Z,58.00
2018-02-10T12:51:18.608Z,58.00
2018-02-10T12:53:46.992Z,56.30
2018-02-10T12:56:15.468Z,56.20
2018-02-10T12:58:43.839Z,56.50
2018-02-10T13:01:11.475Z,56.50
2018-02-10T13:03:39.110Z,55.80
2018-02-10T13:06:06.852Z,55.70
2018-02-10T13:08:34.478Z,55.80
2018-02-10T13:11:02.089Z,56.30
2018-02-10T13:13:30.632Z,55.90
2018-02-10T13:15:58.241Z,55.90
2018-02-10T13:18:26.619Z,55.50
2018-02-10T13:20:54.255Z,55.50
2018-02-10T13:23:21.876Z,55.20
2018-02-10T13:25:49.515Z,55.60
2018-02-10T13:28:17.925Z,56.90
2018-02-10T13:30:45.510Z,56.90
2018-02-10T13:33:13.124Z,56.60
2018-02-10T13:35:42.667Z,56.00
2018-02-10T13:40:45.653Z,56.10
2018-02-10T13:43:14.197Z,56.40
2018-02-10T13:45:41.825Z,56.30
2018-02-10T13:48:09.444Z,56.00
2018-02-10T13:50:37.083Z,56.00
2018-02-10T13:53:04.695Z,56.10
2018-02-10T13:55:32.329Z,55.80
2018-02-10T13:57:59.947Z,56.40
2018-02-10T14:00:27.844Z,56.40
2018-02-10T14:02:55.921Z,56.60
2018-02-10T14:05:23.530Z,56.40
2018-02-10T14:07:51.227Z,57.40
2018-02-10T14:10:19.607Z,56.60
2018-02-10T14:12:47.989Z,56.20
2018-02-10T14:15:16.543Z,55.50
2018-02-10T14:17:44.156Z,55.50
2018-02-10T14:20:11.903Z,55.00
2018-02-10T14:22:40.456Z,54.80
2018-02-10T14:25:08.081Z,54.70
2018-02-10T14:27:35.749Z,55.90
2018-02-10T14:30:03.341Z,55.20
2018-02-10T14:32:30.934Z,55.70
2018-02-10T14:34:58.626Z,56.00
2018-02-10T14:37:26.258Z,56.60
2018-02-10T14:39:53.959Z,56.90
2018-02-10T14:42:22.352Z,56.40
2018-02-10T14:44:50.016Z,56.30
2018-02-10T14:47:18.386Z,55.50
2018-02-10T14:49:46.900Z,55.80
2018-02-10T14:52:14.541Z,55.80
2018-02-10T14:54:42.948Z,55.40
2018-02-10T14:57:11.330Z,55.80
2018-02-10T14:59:39.061Z,55.80
2018-02-10T15:02:06.690Z,56.10
2018-02-10T15:04:34.309Z,56.50
2018-02-10T15:07:02.695Z,56.60
2018-02-10T15:09:31.067Z,57.00
2018-02-10T15:11:58.705Z,57.00
2018-02-10T15:14:26.332Z,56.70
2018-02-10T15:16:53.979Z,56.50
2018-02-10T15:19:22.336Z,55.40
2018-02-10T15:21:49.975Z,55.40
2018-02-10T15:24:17.579Z,55.50
2018-02-10T15:26:45.169Z,55.20
2018-02-10T15:29:12.831Z,55.60
2018-02-10T15:31:53.257Z,55.80
2018-02-10T15:34:45.746Z,55.80
2018-02-10T15:37:13.449Z,55.60
2018-02-10T15:39:41.095Z,55.40
2018-02-10T15:42:08.859Z,55.20
2018-02-10T15:44:36.608Z,55.50
2018-02-10T15:47:04.479Z,60.20
2018-02-10T15:49:32.112Z,56.10
2018-02-10T15:52:00.206Z,55.70
2018-02-10T15:54:27.974Z,56.80
2018-02-10T15:56:55.637Z,56.90
2018-02-10T15:59:24.075Z,56.50
2018-02-10T16:01:51.731Z,56.50
2018-02-10T16:04:19.394Z,58.10
2018-02-10T16:06:46.992Z,59.00
2018-02-10T16:09:15.556Z,60.00
2018-02-10T16:11:43.162Z,60.00
2018-02-10T16:14:10.822Z,59.70
2018-02-10T16:16:38.426Z,58.70
2018-02-10T16:19:06.030Z,57.30
2018-02-10T16:21:33.668Z,57.40
2018-02-10T16:24:01.330Z,58.50
2018-02-10T16:26:29.009Z,58.40
2018-02-10T16:28:56.696Z,59.20
2018-02-10T16:31:24.340Z,59.60
2018-02-10T16:33:52.070Z,60.80
2018-02-10T16:36:20.460Z,60.20
2018-02-10T16:38:48.834Z,61.00
2018-02-10T16:41:17.203Z,60.20
2018-02-10T16:43:44.805Z,60.70
2018-02-10T16:46:12.424Z,60.30
2018-02-10T16:48:40.034Z,60.00
2018-02-10T16:51:07.691Z,60.30
2018-02-10T16:53:36.103Z,61.20
2018-02-10T16:56:03.869Z,61.20
2018-02-10T16:58:31.529Z,62.30
2018-02-10T17:00:59.150Z,62.00
2018-02-10T17:03:26.777Z,61.60
2018-02-10T17:05:54.663Z,60.60
2018-02-10T17:08:22.275Z,60.50
2018-02-10T17:10:50.651Z,61.10
2018-02-10T17:13:19.443Z,61.00
2018-02-10T17:15:47.113Z,61.00
2018-02-10T17:18:15.486Z,61.20
2018-02-10T17:20:43.117Z,61.20
2018-02-10T17:23:10.717Z,62.40
2018-02-10T17:25:39.119Z,61.70
2018-02-10T17:28:07.531Z,61.60
2018-02-10T17:30:35.286Z,61.50
2018-02-10T17:33:02.888Z,61.20
2018-02-10T17:35:30.495Z,61.10
2018-02-10T17:37:58.899Z,62.20
2018-02-10T17:40:26.534Z,62.10
2018-02-10T17:42:55.002Z,63.40
2018-02-10T17:45:22.631Z,63.40
2018-02-10T17:47:50.373Z,62.10
2018-02-10T17:50:19.501Z,62.50
2018-02-10T17:52:47.140Z,62.40
2018-02-10T17:55:15.574Z,62.30
2018-02-10T17:57:43.283Z,62.30
2018-02-10T18:00:12.187Z,61.60
2018-02-10T18:02:40.603Z,61.70
2018-02-10T18:05:08.274Z,61.70
2018-02-10T18:07:35.909Z,62.30
2018-02-10T18:10:04.274Z,62.50
2018-02-10T18:12:32.044Z,62.50
2018-02-10T18:15:00.590Z,61.70
2018-02-10T18:17:28.420Z,61.70
2018-02-10T18:19:56.955Z,61.50
2018-02-10T18:22:24.575Z,61.50
2018-02-10T18:24:52.286Z,61.40
2018-02-10T18:27:19.926Z,61.40
2018-02-10T18:29:47.543Z,61.40
2018-02-10T18:32:15.935Z,61.50
2018-02-10T18:34:44.414Z,61.50
2018-02-10T18:37:13.712Z,61.10
2018-02-10T18:39:41.454Z,61.50
2018-02-10T18:42:09.333Z,61.40
2018-02-10T18:44:36.984Z,61.60
2018-02-10T18:47:04.763Z,61.50
2018-02-10T18:49:32.371Z,61.50
2018-02-10T18:52:00.827Z,61.80
2018-02-10T18:54:28.670Z,61.80
2018-02-10T18:56:56.426Z,61.70
2018-02-10T18:59:24.445Z,62.00
2018-02-10T19:01:53.509Z,62.80
2018-02-10T19:04:21.184Z,62.30
2018-02-10T19:06:48.875Z,62.40
2018-02-10T19:09:16.538Z,62.50
2018-02-10T19:11:44.220Z,62.60
2018-02-10T19:14:12.641Z,63.90
2018-02-10T19:16:41.014Z,63.80
2018-02-10T19:19:09.477Z,64.20
2018-02-10T19:21:37.914Z,64.40
2018-02-10T19:24:05.640Z,64.40
2018-02-10T19:26:34.090Z,64.50
2018-02-10T19:29:01.732Z,64.50
2018-02-10T19:31:29.449Z,64.60
2018-02-10T19:33:57.264Z,64.50
2018-02-10T19:36:24.913Z,65.10
2018-02-10T19:38:53.354Z,64.00
2018-02-10T19:41:21.060Z,64.00
2018-02-10T19:43:48.741Z,63.70
2018-02-10T19:46:16.399Z,64.20
2018-02-10T19:48:44.046Z,64.10
2018-02-10T19:51:11.724Z,64.20
2018-02-10T19:53:40.207Z,64.50
2018-02-10T19:56:08.625Z,64.50
2018-02-10T19:58:36.318Z,64.30
2018-02-10T20:01:03.956Z,64.60
2018-02-10T20:03:32.178Z,65.10
2018-02-10T20:05:59.900Z,65.20
2018-02-10T20:08:27.633Z,65.40
2018-02-10T20:10:56.109Z,64.90
2018-02-10T20:13:28.836Z,64.80
2018-02-10T20:15:56.690Z,64.80
2018-02-10T20:18:24.392Z,64.90
2018-02-10T20:20:52.038Z,65.40
2018-02-10T20:23:20.425Z,65.30
2018-02-10T20:25:48.165Z,65.40
2018-02-10T20:28:15.988Z,65.70
2018-02-10T20:30:43.657Z,65.90
2018-02-10T20:33:11.364Z,66.20
2018-02-10T20:35:39.870Z,66.60
2018-02-10T20:38:07.598Z,66.50
2018-02-10T20:40:35.318Z,67.10
2018-02-10T20:43:03.203Z,67.30
2018-02-10T20:45:30.947Z,67.50
2018-02-10T20:47:58.654Z,67.70
2018-02-10T20:50:26.497Z,68.20
2018-02-10T20:52:54.257Z,68.20
2018-02-10T20:55:21.979Z,68.50
2018-02-10T20:57:49.759Z,68.90
2018-02-10T21:00:18.269Z,69.30
2018-02-10T21:02:46.690Z,69.40
2018-02-10T21:05:15.260Z,69.40
2018-02-10T21:07:43.040Z,69.40
2018-02-10T21:10:11.502Z,69.70
2018-02-10T21:12:39.214Z,69.60
2018-02-10T21:15:07.730Z,69.80
2018-02-10T21:17:35.448Z,69.80
2018-02-10T21:20:03.153Z,69.80
2018-02-10T21:22:30.826Z,69.80
2018-02-10T21:24:58.532Z,69.60
2018-02-10T21:27:26.210Z,70.20
2018-02-10T21:29:53.931Z,70.00
2018-02-10T21:32:21.637Z,69.90
2018-02-10T21:34:50.157Z,69.80
2018-02-10T21:37:17.822Z,70.00
2018-02-10T21:39:45.486Z,70.00
2018-02-10T21:42:13.348Z,70.00
2018-02-10T21:44:41.016Z,69.90
2018-02-10T21:47:08.674Z,69.90
2018-02-10T21:49:36.285Z,70.20
2018-02-10T21:52:04.004Z,70.20
2018-02-10T21:54:31.732Z,70.20
2018-02-10T21:57:00.141Z,70.20
2018-02-10T21:59:28.631Z,70.20
2018-02-10T22:01:56.990Z,70.10
2018-02-10T22:04:25.509Z,70.10
2018-02-10T22:06:53.383Z,70.10
2018-02-10T22:09:21.087Z,70.20
2018-02-10T22:11:48.699Z,70.00
2018-02-10T22:14:17.070Z,69.60
2018-02-10T22:16:45.585Z,69.60
2018-02-10T22:19:13.344Z,69.50
2018-02-10T22:21:41.735Z,69.40
2018-02-10T22:24:09.419Z,69.30
2018-02-10T22:26:37.069Z,69.50
2018-02-10T22:29:04.773Z,69.40
2018-02-10T22:31:32.396Z,70.00
2018-02-10T22:34:00.120Z,69.40
2018-02-10T22:36:27.723Z,69.30
2018-02-10T22:38:56.109Z,69.00
2018-02-10T22:41:23.738Z,69.00
2018-02-10T22:43:51.382Z,69.00
2018-02-10T22:46:19.020Z,68.80
2018-02-10T22:48:46.638Z,68.80
2018-02-10T22:51:14.602Z,68.80
2018-02-10T22:53:42.208Z,68.90
2018-02-10T22:56:10.579Z,68.80
2018-02-10T22:58:38.994Z,68.90
2018-02-10T23:01:12.284Z,68.90
2018-02-10T23:03:39.908Z,68.50
2018-02-10T23:06:09.045Z,68.60
2018-02-10T23:08:36.716Z,68.60
2018-02-10T23:11:04.336Z,68.40
2018-02-10T23:13:31.956Z,68.40
2018-02-10T23:15:59.583Z,68.20
2018-02-10T23:18:27.165Z,68.30
2018-02-10T23:20:54.811Z,68.40
2018-02-10T23:23:23.920Z,68.40
2018-02-10T23:25:52.351Z,68.20
2018-02-10T23:28:19.965Z,68.20
2018-02-10T23:30:48.345Z,68.40
2018-02-10T23:33:15.975Z,68.60
2018-02-10T23:35:43.569Z,69.10
2018-02-10T23:38:11.221Z,68.40
2018-02-10T23:40:38.816Z,68.20
2018-02-10T23:43:07.211Z,68.40
2018-02-10T23:45:35.595Z,68.40
2018-02-10T23:48:04.022Z,68.20
2018-02-10T23:50:31.625Z,68.20
2018-02-10T23:53:00.015Z,68.10
2018-02-10T23:55:28.409Z,68.20
2018-02-10T23:57:56.778Z,68.00
